Ismailia, Egypt
Current Conditions -  °F | °C
As of 10:00 AM on Wednesday 26 Nov 2014 (Local Time) from HEPS Reporting Station
Scattered Clouds Scattered Clouds  
Wind Chill: 17°   Ceiling: Unl
Heat Index: 17°   Visibility: 6mi
Dew Point: 11°   Wind: 18mph
Humidity: 68%   Direction: 240°WSW
Pressure: 29.97"   Gusts: NA
Location:  30.59°N, 32.26°E
Report Text: HEPS 260800Z 24016KT 9999 FEW025 SCT200 17/11 Q1015 NOSIG
Loading
Personal Weather Stations






























Interactive Weather Map New forecast layout! Learn more

10-Day Weather Forecast

Advertisements
Track Severe Weather on mobile